sensor_id;sensor_type;location;lat;lon;timestamp;P1;durP1;ratioP1;P2;durP2;ratioP2
5345;SDS011;2695;49.444;11.054;2023-03-03T00:01:02;26.47;;;15.20;;
5345;SDS011;2695;49.444;11.054;2023-03-03T00:03:31;25.40;;;15.37;;
5345;SDS011;2695;49.444;11.054;2023-03-03T00:06:01;22.90;;;13.80;;
5345;SDS011;2695;49.444;11.054;2023-03-03T00:08:30;28.57;;;15.00;;
5345;SDS011;2695;49.444;11.054;2023-03-03T00:11:00;28.53;;;15.50;;
5345;SDS011;2695;49.444;11.054;2023-03-03T00:13:30;29.87;;;16.07;;
5345;SDS011;2695;49.444;11.054;2023-03-03T00:16:08;34.60;;;15.40;;
5345;SDS011;2695;49.444;11.054;2023-03-03T00:18:40;23.67;;;14.60;;
5345;SDS011;2695;49.444;11.054;2023-03-03T00:21:17;24.47;;;14.00;;
5345;SDS011;2695;49.444;11.054;2023-03-03T00:23:52;28.23;;;15.60;;
5345;SDS011;2695;49.444;11.054;2023-03-03T00:26:22;31.07;;;14.53;;
5345;SDS011;2695;49.444;11.054;2023-03-03T00:28:55;23.63;;;13.83;;
5345;SDS011;2695;49.444;11.054;2023-03-03T00:31:26;26.67;;;14.53;;
5345;SDS011;2695;49.444;11.054;2023-03-03T00:33:58;24.77;;;13.80;;
5345;SDS011;2695;49.444;11.054;2023-03-03T00:36:38;28.73;;;15.20;;
5345;SDS011;2695;49.444;11.054;2023-03-03T00:39:14;29.77;;;16.50;;
5345;SDS011;2695;49.444;11.054;2023-03-03T00:41:47;33.90;;;14.20;;
5345;SDS011;2695;49.444;11.054;2023-03-03T00:47:22;25.00;;;14.57;;
5345;SDS011;2695;49.444;11.054;2023-03-03T00:50:13;25.63;;;14.77;;
5345;SDS011;2695;49.444;11.054;2023-03-03T00:52:52;25.73;;;14.50;;
5345;SDS011;2695;49.444;11.054;2023-03-03T00:55:26;25.83;;;15.17;;
5345;SDS011;2695;49.444;11.054;2023-03-03T00:57:56;28.60;;;14.53;;
5345;SDS011;2695;49.444;11.054;2023-03-03T01:00:24;22.53;;;12.70;;
5345;SDS011;2695;49.444;11.054;2023-03-03T01:02:52;26.20;;;14.83;;
5345;SDS011;2695;49.444;11.054;2023-03-03T01:05:20;35.47;;;15.70;;
5345;SDS011;2695;49.444;11.054;2023-03-03T01:07:48;24.63;;;14.37;;
5345;SDS011;2695;49.444;11.054;2023-03-03T01:10:17;31.90;;;13.50;;
5345;SDS011;2695;49.444;11.054;2023-03-03T01:12:45;24.20;;;13.47;;
5345;SDS011;2695;49.444;11.054;2023-03-03T01:15:15;24.30;;;14.70;;
5345;SDS011;2695;49.444;11.054;2023-03-03T01:17:43;25.20;;;14.13;;
5345;SDS011;2695;49.444;11.054;2023-03-03T01:20:13;21.00;;;13.10;;
5345;SDS011;2695;49.444;11.054;2023-03-03T01:22:41;26.90;;;14.30;;
5345;SDS011;2695;49.444;11.054;2023-03-03T01:25:09;24.47;;;13.30;;
5345;SDS011;2695;49.444;11.054;2023-03-03T01:27:38;25.73;;;14.40;;
5345;SDS011;2695;49.444;11.054;2023-03-03T01:30:06;20.27;;;12.30;;
5345;SDS011;2695;49.444;11.054;2023-03-03T01:32:37;26.87;;;14.10;;
5345;SDS011;2695;49.444;11.054;2023-03-03T01:35:05;22.20;;;13.50;;
5345;SDS011;2695;49.444;11.054;2023-03-03T01:37:34;29.83;;;15.40;;
5345;SDS011;2695;49.444;11.054;2023-03-03T01:40:03;23.90;;;13.60;;
5345;SDS011;2695;49.444;11.054;2023-03-03T01:42:33;23.53;;;13.43;;
5345;SDS011;2695;49.444;11.054;2023-03-03T01:45:14;25.77;;;14.90;;
5345;SDS011;2695;49.444;11.054;2023-03-03T01:47:50;22.37;;;13.70;;
5345;SDS011;2695;49.444;11.054;2023-03-03T01:50:26;22.87;;;13.60;;
5345;SDS011;2695;49.444;11.054;2023-03-03T01:52:58;23.50;;;13.80;;
5345;SDS011;2695;49.444;11.054;2023-03-03T01:55:31;28.53;;;14.00;;
5345;SDS011;2695;49.444;11.054;2023-03-03T01:58:02;22.33;;;13.50;;
5345;SDS011;2695;49.444;11.054;2023-03-03T02:00:33;27.13;;;15.37;;
5345;SDS011;2695;49.444;11.054;2023-03-03T02:03:04;27.07;;;14.03;;
5345;SDS011;2695;49.444;11.054;2023-03-03T02:05:32;23.60;;;14.07;;
5345;SDS011;2695;49.444;11.054;2023-03-03T02:08:02;26.27;;;13.77;;
5345;SDS011;2695;49.444;11.054;2023-03-03T02:10:31;22.77;;;13.53;;
5345;SDS011;2695;49.444;11.054;2023-03-03T02:12:59;22.43;;;13.33;;
5345;SDS011;2695;49.444;11.054;2023-03-03T02:15:27;21.47;;;13.07;;
5345;SDS011;2695;49.444;11.054;2023-03-03T02:17:58;22.00;;;13.17;;
5345;SDS011;2695;49.444;11.054;2023-03-03T02:20:33;21.73;;;13.33;;
5345;SDS011;2695;49.444;11.054;2023-03-03T02:23:11;33.23;;;14.40;;
5345;SDS011;2695;49.444;11.054;2023-03-03T02:25:44;19.00;;;12.30;;
5345;SDS011;2695;49.444;11.054;2023-03-03T02:28:19;25.83;;;13.53;;
5345;SDS011;2695;49.444;11.054;2023-03-03T02:30:48;20.80;;;13.10;;
5345;SDS011;2695;49.444;11.054;2023-03-03T02:33:16;32.13;;;12.63;;
5345;SDS011;2695;49.444;11.054;2023-03-03T02:35:44;25.90;;;13.60;;
5345;SDS011;2695;49.444;11.054;2023-03-03T02:38:15;20.30;;;12.23;;
5345;SDS011;2695;49.444;11.054;2023-03-03T02:40:51;21.43;;;12.40;;
5345;SDS011;2695;49.444;11.054;2023-03-03T02:43:29;21.13;;;12.80;;
5345;SDS011;2695;49.444;11.054;2023-03-03T02:46:03;23.00;;;13.40;;
5345;SDS011;2695;49.444;11.054;2023-03-03T02:48:31;23.10;;;12.90;;
5345;SDS011;2695;49.444;11.054;2023-03-03T02:50:59;27.27;;;12.37;;
5345;SDS011;2695;49.444;11.054;2023-03-03T02:53:28;21.77;;;11.73;;
5345;SDS011;2695;49.444;11.054;2023-03-03T02:55:56;19.63;;;12.67;;
5345;SDS011;2695;49.444;11.054;2023-03-03T02:58:24;23.37;;;12.77;;
5345;SDS011;2695;49.444;11.054;2023-03-03T03:00:54;20.03;;;12.10;;
5345;SDS011;2695;49.444;11.054;2023-03-03T03:03:22;22.67;;;12.53;;
5345;SDS011;2695;49.444;11.054;2023-03-03T03:05:50;26.30;;;12.90;;
5345;SDS011;2695;49.444;11.054;2023-03-03T03:08:18;20.60;;;11.97;;
5345;SDS011;2695;49.444;11.054;2023-03-03T03:10:46;20.73;;;12.30;;
5345;SDS011;2695;49.444;11.054;2023-03-03T03:13:15;20.97;;;11.97;;
5345;SDS011;2695;49.444;11.054;2023-03-03T03:15:44;25.33;;;12.17;;
5345;SDS011;2695;49.444;11.054;2023-03-03T03:18:14;20.87;;;11.67;;
5345;SDS011;2695;49.444;11.054;2023-03-03T03:20:43;22.40;;;12.70;;
5345;SDS011;2695;49.444;11.054;2023-03-03T03:23:13;35.27;;;13.70;;
5345;SDS011;2695;49.444;11.054;2023-03-03T03:25:42;25.57;;;12.33;;
5345;SDS011;2695;49.444;11.054;2023-03-03T03:28:11;22.50;;;13.23;;
5345;SDS011;2695;49.444;11.054;2023-03-03T03:30:40;21.70;;;11.53;;
5345;SDS011;2695;49.444;11.054;2023-03-03T03:33:09;20.80;;;12.87;;
5345;SDS011;2695;49.444;11.054;2023-03-03T03:35:39;22.13;;;11.67;;
5345;SDS011;2695;49.444;11.054;2023-03-03T03:38:11;32.03;;;14.27;;
5345;SDS011;2695;49.444;11.054;2023-03-03T03:40:39;22.80;;;13.23;;
5345;SDS011;2695;49.444;11.054;2023-03-03T03:43:07;27.70;;;12.90;;
5345;SDS011;2695;49.444;11.054;2023-03-03T03:45:35;24.17;;;13.50;;
5345;SDS011;2695;49.444;11.054;2023-03-03T03:48:03;35.00;;;13.70;;
5345;SDS011;2695;49.444;11.054;2023-03-03T03:50:32;24.67;;;12.67;;
5345;SDS011;2695;49.444;11.054;2023-03-03T03:53:01;25.27;;;13.60;;
5345;SDS011;2695;49.444;11.054;2023-03-03T03:55:30;22.77;;;12.60;;
5345;SDS011;2695;49.444;11.054;2023-03-03T03:57:58;23.83;;;13.37;;
5345;SDS011;2695;49.444;11.054;2023-03-03T04:00:26;22.57;;;12.97;;
5345;SDS011;2695;49.444;11.054;2023-03-03T04:02:54;27.30;;;13.77;;
5345;SDS011;2695;49.444;11.054;2023-03-03T04:05:22;22.80;;;14.27;;
5345;SDS011;2695;49.444;11.054;2023-03-03T04:07:50;24.90;;;13.87;;
5345;SDS011;2695;49.444;11.054;2023-03-03T04:10:20;29.50;;;15.27;;
5345;SDS011;2695;49.444;11.054;2023-03-03T04:12:48;25.07;;;14.33;;
5345;SDS011;2695;49.444;11.054;2023-03-03T04:15:16;24.23;;;13.37;;
5345;SDS011;2695;49.444;11.054;2023-03-03T04:17:44;28.60;;;13.93;;
5345;SDS011;2695;49.444;11.054;2023-03-03T04:20:13;23.50;;;13.80;;
5345;SDS011;2695;49.444;11.054;2023-03-03T04:22:41;21.53;;;12.80;;
5345;SDS011;2695;49.444;11.054;2023-03-03T04:25:10;27.93;;;14.00;;
5345;SDS011;2695;49.444;11.054;2023-03-03T04:27:42;30.00;;;14.77;;
5345;SDS011;2695;49.444;11.054;2023-03-03T04:30:11;28.17;;;13.93;;
5345;SDS011;2695;49.444;11.054;2023-03-03T04:32:40;34.13;;;14.00;;
5345;SDS011;2695;49.444;11.054;2023-03-03T04:35:09;25.60;;;13.07;;
5345;SDS011;2695;49.444;11.054;2023-03-03T04:37:37;25.47;;;14.03;;
5345;SDS011;2695;49.444;11.054;2023-03-03T04:40:07;33.87;;;16.70;;
5345;SDS011;2695;49.444;11.054;2023-03-03T04:42:37;25.47;;;14.80;;
5345;SDS011;2695;49.444;11.054;2023-03-03T04:45:07;34.50;;;15.60;;
5345;SDS011;2695;49.444;11.054;2023-03-03T04:47:35;31.07;;;14.47;;
5345;SDS011;2695;49.444;11.054;2023-03-03T04:50:04;26.57;;;13.53;;
5345;SDS011;2695;49.444;11.054;2023-03-03T04:52:33;26.63;;;14.40;;
5345;SDS011;2695;49.444;11.054;2023-03-03T04:55:01;27.43;;;14.40;;
5345;SDS011;2695;49.444;11.054;2023-03-03T04:57:29;27.80;;;14.00;;
5345;SDS011;2695;49.444;11.054;2023-03-03T04:59:57;22.83;;;12.50;;
5345;SDS011;2695;49.444;11.054;2023-03-03T05:02:26;25.53;;;14.53;;
5345;SDS011;2695;49.444;11.054;2023-03-03T05:04:55;32.90;;;14.37;;
5345;SDS011;2695;49.444;11.054;2023-03-03T05:07:23;27.57;;;14.87;;
5345;SDS011;2695;49.444;11.054;2023-03-03T05:09:51;28.60;;;14.27;;
5345;SDS011;2695;49.444;11.054;2023-03-03T05:12:19;32.37;;;14.10;;
5345;SDS011;2695;49.444;11.054;2023-03-03T05:14:47;27.90;;;13.60;;
5345;SDS011;2695;49.444;11.054;2023-03-03T05:17:15;35.77;;;15.53;;
5345;SDS011;2695;49.444;11.054;2023-03-03T05:19:45;28.07;;;14.83;;
5345;SDS011;2695;49.444;11.054;2023-03-03T05:22:13;23.63;;;14.07;;
5345;SDS011;2695;49.444;11.054;2023-03-03T05:24:41;24.30;;;14.47;;
5345;SDS011;2695;49.444;11.054;2023-03-03T05:27:09;27.17;;;13.97;;
5345;SDS011;2695;49.444;11.054;2023-03-03T05:29:37;28.30;;;14.90;;
5345;SDS011;2695;49.444;11.054;2023-03-03T05:32:06;33.87;;;15.03;;
5345;SDS011;2695;49.444;11.054;2023-03-03T05:34:34;27.93;;;14.97;;
5345;SDS011;2695;49.444;11.054;2023-03-03T05:37:03;26.23;;;14.93;;
5345;SDS011;2695;49.444;11.054;2023-03-03T05:39:32;25.07;;;14.37;;
5345;SDS011;2695;49.444;11.054;2023-03-03T05:42:01;35.07;;;17.00;;
5345;SDS011;2695;49.444;11.054;2023-03-03T05:44:29;35.57;;;15.40;;
5345;SDS011;2695;49.444;11.054;2023-03-03T05:46:57;27.57;;;14.57;;
5345;SDS011;2695;49.444;11.054;2023-03-03T05:49:25;26.03;;;13.43;;
5345;SDS011;2695;49.444;11.054;2023-03-03T05:51:53;28.60;;;15.43;;
5345;SDS011;2695;49.444;11.054;2023-03-03T05:54:22;30.37;;;15.50;;
5345;SDS011;2695;49.444;11.054;2023-03-03T05:56:51;28.77;;;15.77;;
5345;SDS011;2695;49.444;11.054;2023-03-03T05:59:19;25.93;;;15.20;;
5345;SDS011;2695;49.444;11.054;2023-03-03T06:01:47;28.43;;;15.53;;
5345;SDS011;2695;49.444;11.054;2023-03-03T06:04:15;31.53;;;16.20;;
5345;SDS011;2695;49.444;11.054;2023-03-03T06:06:44;32.40;;;15.23;;
5345;SDS011;2695;49.444;11.054;2023-03-03T06:09:12;29.20;;;14.97;;
5345;SDS011;2695;49.444;11.054;2023-03-03T06:11:42;33.63;;;16.90;;
5345;SDS011;2695;49.444;11.054;2023-03-03T06:14:10;29.33;;;16.07;;
5345;SDS011;2695;49.444;11.054;2023-03-03T06:16:38;28.13;;;15.70;;
5345;SDS011;2695;49.444;11.054;2023-03-03T06:19:06;30.67;;;18.17;;
5345;SDS011;2695;49.444;11.054;2023-03-03T06:21:34;35.27;;;15.67;;
5345;SDS011;2695;49.444;11.054;2023-03-03T06:24:03;33.80;;;18.47;;
5345;SDS011;2695;49.444;11.054;2023-03-03T06:26:31;28.50;;;15.57;;
5345;SDS011;2695;49.444;11.054;2023-03-03T06:29:01;33.70;;;17.13;;
5345;SDS011;2695;49.444;11.054;2023-03-03T06:31:30;31.47;;;16.90;;
5345;SDS011;2695;49.444;11.054;2023-03-03T06:33:58;33.47;;;17.93;;
5345;SDS011;2695;49.444;11.054;2023-03-03T06:36:26;37.37;;;18.63;;
5345;SDS011;2695;49.444;11.054;2023-03-03T06:38:54;30.13;;;16.67;;
5345;SDS011;2695;49.444;11.054;2023-03-03T06:41:22;33.57;;;16.20;;
5345;SDS011;2695;49.444;11.054;2023-03-03T06:43:50;34.00;;;17.63;;
5345;SDS011;2695;49.444;11.054;2023-03-03T06:46:20;34.53;;;17.00;;
5345;SDS011;2695;49.444;11.054;2023-03-03T06:48:55;32.90;;;18.00;;
5345;SDS011;2695;49.444;11.054;2023-03-03T06:51:29;36.53;;;16.50;;
5345;SDS011;2695;49.444;11.054;2023-03-03T06:54:01;34.60;;;17.57;;
5345;SDS011;2695;49.444;11.054;2023-03-03T06:56:32;34.27;;;18.67;;
5345;SDS011;2695;49.444;11.054;2023-03-03T06:59:05;35.83;;;18.43;;
5345;SDS011;2695;49.444;11.054;2023-03-03T07:01:40;37.30;;;19.20;;
5345;SDS011;2695;49.444;11.054;2023-03-03T07:04:16;31.20;;;16.17;;
5345;SDS011;2695;49.444;11.054;2023-03-03T07:06:54;37.03;;;17.83;;
5345;SDS011;2695;49.444;11.054;2023-03-03T07:09:24;31.37;;;17.97;;
5345;SDS011;2695;49.444;11.054;2023-03-03T07:11:55;37.17;;;20.00;;
5345;SDS011;2695;49.444;11.054;2023-03-03T07:14:27;34.50;;;17.67;;
5345;SDS011;2695;49.444;11.054;2023-03-03T07:16:58;32.07;;;17.20;;
5345;SDS011;2695;49.444;11.054;2023-03-03T07:19:33;36.13;;;18.90;;
5345;SDS011;2695;49.444;11.054;2023-03-03T07:22:07;39.70;;;17.83;;
5345;SDS011;2695;49.444;11.054;2023-03-03T07:24:41;41.60;;;19.73;;
5345;SDS011;2695;49.444;11.054;2023-03-03T07:27:12;34.10;;;19.03;;
5345;SDS011;2695;49.444;11.054;2023-03-03T07:29:44;37.37;;;17.60;;
5345;SDS011;2695;49.444;11.054;2023-03-03T07:32:28;36.10;;;18.97;;
5345;SDS011;2695;49.444;11.054;2023-03-03T07:35:06;33.03;;;18.00;;
5345;SDS011;2695;49.444;11.054;2023-03-03T07:37:50;34.60;;;17.67;;
5345;SDS011;2695;49.444;11.054;2023-03-03T07:40:28;37.37;;;19.50;;
5345;SDS011;2695;49.444;11.054;2023-03-03T07:43:12;37.17;;;17.57;;
5345;SDS011;2695;49.444;11.054;2023-03-03T07:45:54;35.47;;;17.30;;
5345;SDS011;2695;49.444;11.054;2023-03-03T07:48:30;35.80;;;17.93;;
5345;SDS011;2695;49.444;11.054;2023-03-03T07:51:04;34.27;;;17.20;;
5345;SDS011;2695;49.444;11.054;2023-03-03T07:53:38;33.97;;;17.63;;
5345;SDS011;2695;49.444;11.054;2023-03-03T07:56:13;33.07;;;18.10;;
5345;SDS011;2695;49.444;11.054;2023-03-03T07:58:43;28.67;;;17.63;;
5345;SDS011;2695;49.444;11.054;2023-03-03T08:04:14;32.27;;;19.60;;
5345;SDS011;2695;49.444;11.054;2023-03-03T08:06:45;30.47;;;18.80;;
5345;SDS011;2695;49.444;11.054;2023-03-03T08:09:41;31.83;;;19.00;;
5345;SDS011;2695;49.444;11.054;2023-03-03T08:15:14;31.20;;;19.53;;
5345;SDS011;2695;49.444;11.054;2023-03-03T08:17:46;32.63;;;18.73;;
5345;SDS011;2695;49.444;11.054;2023-03-03T08:23:15;34.87;;;19.70;;
5345;SDS011;2695;49.444;11.054;2023-03-03T08:25:46;39.70;;;20.50;;
5345;SDS011;2695;49.444;11.054;2023-03-03T08:28:15;35.43;;;20.50;;
5345;SDS011;2695;49.444;11.054;2023-03-03T08:30:44;38.43;;;21.17;;
5345;SDS011;2695;49.444;11.054;2023-03-03T08:33:13;38.13;;;21.70;;
5345;SDS011;2695;49.444;11.054;2023-03-03T08:35:42;34.90;;;20.87;;
5345;SDS011;2695;49.444;11.054;2023-03-03T08:38:12;36.23;;;19.33;;
5345;SDS011;2695;49.444;11.054;2023-03-03T08:40:41;29.97;;;20.13;;
5345;SDS011;2695;49.444;11.054;2023-03-03T08:43:10;34.20;;;21.10;;
5345;SDS011;2695;49.444;11.054;2023-03-03T08:45:42;35.83;;;20.60;;
5345;SDS011;2695;49.444;11.054;2023-03-03T08:48:12;34.47;;;21.33;;
5345;SDS011;2695;49.444;11.054;2023-03-03T08:50:41;33.80;;;20.07;;
5345;SDS011;2695;49.444;11.054;2023-03-03T08:53:10;35.73;;;20.43;;
5345;SDS011;2695;49.444;11.054;2023-03-03T08:55:41;30.27;;;18.27;;
5345;SDS011;2695;49.444;11.054;2023-03-03T08:58:10;33.40;;;20.23;;
5345;SDS011;2695;49.444;11.054;2023-03-03T09:00:39;35.70;;;20.10;;
5345;SDS011;2695;49.444;11.054;2023-03-03T09:03:07;33.17;;;20.87;;
5345;SDS011;2695;49.444;11.054;2023-03-03T09:05:36;33.30;;;20.10;;
5345;SDS011;2695;49.444;11.054;2023-03-03T09:08:06;33.70;;;20.50;;
5345;SDS011;2695;49.444;11.054;2023-03-03T09:10:36;31.20;;;19.03;;
5345;SDS011;2695;49.444;11.054;2023-03-03T09:13:06;37.25;;;21.33;;
5345;SDS011;2695;49.444;11.054;2023-03-03T09:15:39;35.30;;;19.20;;
5345;SDS011;2695;49.444;11.054;2023-03-03T09:18:13;33.00;;;19.20;;
5345;SDS011;2695;49.444;11.054;2023-03-03T09:20:43;36.63;;;20.38;;
5345;SDS011;2695;49.444;11.054;2023-03-03T09:23:21;32.38;;;20.58;;
5345;SDS011;2695;49.444;11.054;2023-03-03T09:25:58;30.73;;;19.38;;
5345;SDS011;2695;49.444;11.054;2023-03-03T09:28:41;32.20;;;20.92;;
5345;SDS011;2695;49.444;11.054;2023-03-03T09:31:16;28.88;;;18.90;;
5345;SDS011;2695;49.444;11.054;2023-03-03T09:33:51;29.55;;;18.90;;
5345;SDS011;2695;49.444;11.054;2023-03-03T09:36:23;30.30;;;18.00;;
5345;SDS011;2695;49.444;11.054;2023-03-03T09:38:53;32.97;;;20.05;;
5345;SDS011;2695;49.444;11.054;2023-03-03T09:41:27;32.55;;;19.13;;
5345;SDS011;2695;49.444;11.054;2023-03-03T09:47:23;30.95;;;20.58;;
5345;SDS011;2695;49.444;11.054;2023-03-03T09:50:01;36.92;;;20.75;;
5345;SDS011;2695;49.444;11.054;2023-03-03T09:52:39;31.98;;;20.20;;
5345;SDS011;2695;49.444;11.054;2023-03-03T09:55:15;33.03;;;20.25;;
5345;SDS011;2695;49.444;11.054;2023-03-03T09:58:01;34.85;;;20.15;;
5345;SDS011;2695;49.444;11.054;2023-03-03T10:00:48;31.08;;;20.73;;
5345;SDS011;2695;49.444;11.054;2023-03-03T10:03:31;30.77;;;20.45;;
5345;SDS011;2695;49.444;11.054;2023-03-03T10:06:24;32.92;;;20.92;;
5345;SDS011;2695;49.444;11.054;2023-03-03T10:08:58;34.17;;;19.45;;
5345;SDS011;2695;49.444;11.054;2023-03-03T10:11:37;31.20;;;19.65;;
5345;SDS011;2695;49.444;11.054;2023-03-03T10:14:37;28.10;;;19.20;;
5345;SDS011;2695;49.444;11.054;2023-03-03T10:17:25;31.15;;;19.45;;
5345;SDS011;2695;49.444;11.054;2023-03-03T10:20:06;28.60;;;18.90;;
5345;SDS011;2695;49.444;11.054;2023-03-03T10:22:49;27.77;;;18.33;;
5345;SDS011;2695;49.444;11.054;2023-03-03T10:25:21;34.07;;;19.63;;
5345;SDS011;2695;49.444;11.054;2023-03-03T10:28:01;30.33;;;19.87;;
5345;SDS011;2695;49.444;11.054;2023-03-03T10:30:46;29.00;;;17.40;;
5345;SDS011;2695;49.444;11.054;2023-03-03T10:33:35;29.63;;;18.50;;
5345;SDS011;2695;49.444;11.054;2023-03-03T10:39:17;29.17;;;17.57;;
5345;SDS011;2695;49.444;11.054;2023-03-03T10:41:58;29.70;;;18.90;;
5345;SDS011;2695;49.444;11.054;2023-03-03T10:44:41;32.50;;;18.80;;
5345;SDS011;2695;49.444;11.054;2023-03-03T10:47:42;35.93;;;19.50;;
5345;SDS011;2695;49.444;11.054;2023-03-03T10:50:26;29.13;;;18.13;;
5345;SDS011;2695;49.444;11.054;2023-03-03T10:53:05;26.90;;;16.90;;
5345;SDS011;2695;49.444;11.054;2023-03-03T10:55:47;27.60;;;17.37;;
5345;SDS011;2695;49.444;11.054;2023-03-03T10:58:36;30.37;;;18.57;;
5345;SDS011;2695;49.444;11.054;2023-03-03T11:01:20;28.07;;;18.03;;
5345;SDS011;2695;49.444;11.054;2023-03-03T11:04:04;31.60;;;17.90;;
5345;SDS011;2695;49.444;11.054;2023-03-03T11:06:50;26.70;;;17.37;;
5345;SDS011;2695;49.444;11.054;2023-03-03T11:09:30;29.10;;;17.17;;
5345;SDS011;2695;49.444;11.054;2023-03-03T11:12:14;32.97;;;18.33;;
5345;SDS011;2695;49.444;11.054;2023-03-03T11:14:56;34.80;;;18.80;;
5345;SDS011;2695;49.444;11.054;2023-03-03T11:17:52;30.70;;;18.00;;
5345;SDS011;2695;49.444;11.054;2023-03-03T11:20:44;28.67;;;17.57;;
5345;SDS011;2695;49.444;11.054;2023-03-03T11:23:31;25.70;;;16.43;;
5345;SDS011;2695;49.444;11.054;2023-03-03T11:26:24;29.37;;;17.27;;
5345;SDS011;2695;49.444;11.054;2023-03-03T11:29:04;28.83;;;18.00;;
5345;SDS011;2695;49.444;11.054;2023-03-03T11:31:45;31.77;;;17.50;;
5345;SDS011;2695;49.444;11.054;2023-03-03T11:34:33;33.60;;;18.13;;
5345;SDS011;2695;49.444;11.054;2023-03-03T11:37:16;36.20;;;15.53;;
5345;SDS011;2695;49.444;11.054;2023-03-03T11:39:51;29.83;;;15.43;;
5345;SDS011;2695;49.444;11.054;2023-03-03T11:42:24;21.40;;;13.60;;
5345;SDS011;2695;49.444;11.054;2023-03-03T11:45:01;22.40;;;14.23;;
5345;SDS011;2695;49.444;11.054;2023-03-03T11:47:33;28.20;;;16.30;;
5345;SDS011;2695;49.444;11.054;2023-03-03T11:50:10;26.17;;;15.67;;
5345;SDS011;2695;49.444;11.054;2023-03-03T11:52:49;33.03;;;16.70;;
5345;SDS011;2695;49.444;11.054;2023-03-03T11:55:22;26.50;;;15.10;;
5345;SDS011;2695;49.444;11.054;2023-03-03T11:57:55;22.77;;;14.30;;
5345;SDS011;2695;49.444;11.054;2023-03-03T12:00:34;25.23;;;14.23;;
5345;SDS011;2695;49.444;11.054;2023-03-03T12:03:10;22.70;;;14.50;;
5345;SDS011;2695;49.444;11.054;2023-03-03T12:05:53;22.73;;;13.67;;
5345;SDS011;2695;49.444;11.054;2023-03-03T12:08:29;21.60;;;13.80;;
5345;SDS011;2695;49.444;11.054;2023-03-03T12:11:06;22.53;;;13.70;;
5345;SDS011;2695;49.444;11.054;2023-03-03T12:13:41;25.20;;;13.37;;
5345;SDS011;2695;49.444;11.054;2023-03-03T12:16:21;24.20;;;13.23;;
5345;SDS011;2695;49.444;11.054;2023-03-03T12:19:09;26.30;;;14.03;;
5345;SDS011;2695;49.444;11.054;2023-03-03T12:24:46;25.80;;;15.30;;
5345;SDS011;2695;49.444;11.054;2023-03-03T12:27:40;29.53;;;13.23;;
5345;SDS011;2695;49.444;11.054;2023-03-03T12:30:16;24.50;;;14.47;;
5345;SDS011;2695;49.444;11.054;2023-03-03T12:32:58;25.10;;;15.13;;
5345;SDS011;2695;49.444;11.054;2023-03-03T12:35:50;24.60;;;13.90;;
5345;SDS011;2695;49.444;11.054;2023-03-03T12:38:29;24.73;;;13.57;;
5345;SDS011;2695;49.444;11.054;2023-03-03T12:41:10;25.97;;;14.33;;
5345;SDS011;2695;49.444;11.054;2023-03-03T12:43:49;23.90;;;13.67;;
5345;SDS011;2695;49.444;11.054;2023-03-03T12:46:27;25.50;;;14.10;;
5345;SDS011;2695;49.444;11.054;2023-03-03T12:49:08;22.20;;;13.83;;
5345;SDS011;2695;49.444;11.054;2023-03-03T12:51:41;26.27;;;13.43;;
5345;SDS011;2695;49.444;11.054;2023-03-03T12:54:31;20.40;;;12.80;;
5345;SDS011;2695;49.444;11.054;2023-03-03T12:57:15;24.43;;;14.50;;
5345;SDS011;2695;49.444;11.054;2023-03-03T12:59:53;23.93;;;13.73;;
5345;SDS011;2695;49.444;11.054;2023-03-03T13:02:38;24.10;;;12.67;;
5345;SDS011;2695;49.444;11.054;2023-03-03T13:05:20;22.57;;;13.57;;
5345;SDS011;2695;49.444;11.054;2023-03-03T13:07:55;65.57;;;37.77;;
5345;SDS011;2695;49.444;11.054;2023-03-03T13:10:43;23.50;;;13.33;;
5345;SDS011;2695;49.444;11.054;2023-03-03T13:13:18;26.57;;;13.60;;
5345;SDS011;2695;49.444;11.054;2023-03-03T13:15:57;20.47;;;13.20;;
5345;SDS011;2695;49.444;11.054;2023-03-03T13:18:36;22.20;;;12.60;;
5345;SDS011;2695;49.444;11.054;2023-03-03T13:21:17;24.13;;;13.37;;
5345;SDS011;2695;49.444;11.054;2023-03-03T13:23:50;19.50;;;12.07;;
5345;SDS011;2695;49.444;11.054;2023-03-03T13:26:28;21.03;;;11.50;;
5345;SDS011;2695;49.444;11.054;2023-03-03T13:29:07;23.27;;;13.13;;
5345;SDS011;2695;49.444;11.054;2023-03-03T13:31:44;22.97;;;13.10;;
5345;SDS011;2695;49.444;11.054;2023-03-03T13:34:19;27.00;;;13.50;;
5345;SDS011;2695;49.444;11.054;2023-03-03T13:36:56;24.77;;;12.67;;
5345;SDS011;2695;49.444;11.054;2023-03-03T13:39:29;21.50;;;12.10;;
5345;SDS011;2695;49.444;11.054;2023-03-03T13:42:07;17.00;;;10.53;;
5345;SDS011;2695;49.444;11.054;2023-03-03T13:44:48;21.60;;;11.63;;
5345;SDS011;2695;49.444;11.054;2023-03-03T13:47:20;21.27;;;11.30;;
5345;SDS011;2695;49.444;11.054;2023-03-03T13:50:00;18.53;;;11.63;;
5345;SDS011;2695;49.444;11.054;2023-03-03T13:52:37;18.70;;;10.90;;
5345;SDS011;2695;49.444;11.054;2023-03-03T13:55:14;18.77;;;11.47;;
5345;SDS011;2695;49.444;11.054;2023-03-03T13:57:55;20.43;;;11.80;;
5345;SDS011;2695;49.444;11.054;2023-03-03T14:00:42;20.17;;;11.30;;
5345;SDS011;2695;49.444;11.054;2023-03-03T14:06:26;17.80;;;10.20;;
5345;SDS011;2695;49.444;11.054;2023-03-03T14:09:08;17.03;;;10.23;;
5345;SDS011;2695;49.444;11.054;2023-03-03T14:12:02;18.03;;;10.70;;
5345;SDS011;2695;49.444;11.054;2023-03-03T14:14:41;14.90;;;9.13;;
5345;SDS011;2695;49.444;11.054;2023-03-03T14:17:18;17.07;;;9.73;;
5345;SDS011;2695;49.444;11.054;2023-03-03T14:19:58;18.10;;;9.77;;
5345;SDS011;2695;49.444;11.054;2023-03-03T14:22:35;21.83;;;10.53;;
5345;SDS011;2695;49.444;11.054;2023-03-03T14:25:12;12.70;;;8.20;;
5345;SDS011;2695;49.444;11.054;2023-03-03T14:27:53;12.10;;;7.70;;
5345;SDS011;2695;49.444;11.054;2023-03-03T14:30:30;16.30;;;9.67;;
5345;SDS011;2695;49.444;11.054;2023-03-03T14:33:04;19.67;;;11.63;;
5345;SDS011;2695;49.444;11.054;2023-03-03T14:35:51;20.60;;;12.00;;
5345;SDS011;2695;49.444;11.054;2023-03-03T14:38:35;21.77;;;12.47;;
5345;SDS011;2695;49.444;11.054;2023-03-03T14:41:31;18.97;;;11.20;;
5345;SDS011;2695;49.444;11.054;2023-03-03T14:47:43;21.23;;;12.40;;
5345;SDS011;2695;49.444;11.054;2023-03-03T14:50:28;21.33;;;10.33;;
5345;SDS011;2695;49.444;11.054;2023-03-03T14:53:04;21.53;;;10.77;;
5345;SDS011;2695;49.444;11.054;2023-03-03T14:55:38;17.87;;;10.57;;
5345;SDS011;2695;49.444;11.054;2023-03-03T14:58:22;18.83;;;10.23;;
5345;SDS011;2695;49.444;11.054;2023-03-03T15:01:11;22.53;;;11.10;;
5345;SDS011;2695;49.444;11.054;2023-03-03T15:03:57;19.83;;;12.13;;
5345;SDS011;2695;49.444;11.054;2023-03-03T15:06:40;17.07;;;10.03;;
5345;SDS011;2695;49.444;11.054;2023-03-03T15:09:23;17.63;;;10.73;;
5345;SDS011;2695;49.444;11.054;2023-03-03T15:11:58;20.60;;;10.17;;
5345;SDS011;2695;49.444;11.054;2023-03-03T15:14:28;17.10;;;10.17;;
5345;SDS011;2695;49.444;11.054;2023-03-03T15:17:11;19.60;;;10.10;;
5345;SDS011;2695;49.444;11.054;2023-03-03T15:20:02;17.60;;;9.30;;
5345;SDS011;2695;49.444;11.054;2023-03-03T15:22:50;17.37;;;10.67;;
5345;SDS011;2695;49.444;11.054;2023-03-03T15:25:27;17.77;;;10.40;;
5345;SDS011;2695;49.444;11.054;2023-03-03T15:28:14;20.20;;;9.83;;
5345;SDS011;2695;49.444;11.054;2023-03-03T15:30:52;17.10;;;9.50;;
5345;SDS011;2695;49.444;11.054;2023-03-03T15:33:28;19.87;;;10.93;;
5345;SDS011;2695;49.444;11.054;2023-03-03T15:36:03;17.43;;;10.10;;
5345;SDS011;2695;49.444;11.054;2023-03-03T15:38:42;20.20;;;10.93;;
5345;SDS011;2695;49.444;11.054;2023-03-03T15:41:24;19.47;;;10.60;;
5345;SDS011;2695;49.444;11.054;2023-03-03T15:43:59;18.67;;;9.23;;
5345;SDS011;2695;49.444;11.054;2023-03-03T15:46:42;21.63;;;11.07;;